Time;durP1;ratioP1;P1;durP2;ratioP2;P2;SDS_P1;SDS_P2;PMS_P1;PMS_P2;Temp;Humidity;BMP_temperature;BMP_pressure;BME280_temperature;BME280_humidity;BME280_pressure;Samples;Min_cycle;Max_cycle;Signal;HPM_P1;HPM_P2
2023/09/07 00:00:52;;;;;;;4.15;3.00;;;18.80;99.90;;;;;;4989542;28;20400;-77
2023/09/07 00:03:18;;;;;;;5.70;3.65;;;18.80;99.90;;;;;;4987640;28;20038;-78
2023/09/07 00:05:44;;;;;;;5.70;3.60;;;18.80;99.90;;;;;;5005018;28;20045;-77
2023/09/07 00:08:10;;;;;;;5.90;3.60;;;18.80;99.90;;;;;;5003408;28;20042;-78
2023/09/07 00:10:35;;;;;;;4.97;3.92;;;18.80;99.90;;;;;;5004404;28;20451;-77
2023/09/07 00:13:04;;;;;;;5.93;4.05;;;18.80;99.90;;;;;;5005545;28;20068;-78
2023/09/07 00:15:35;;;;;;;6.70;4.20;;;18.80;99.90;;;;;;5005043;28;20488;-78
2023/09/07 00:18:00;;;;;;;6.70;4.32;;;18.80;99.90;;;;;;5003014;28;20050;-78
2023/09/07 00:20:26;;;;;;;7.45;3.63;;;18.70;99.90;;;;;;5003720;28;20092;-78
2023/09/07 00:22:51;;;;;;;4.63;3.40;;;18.70;99.90;;;;;;5003151;28;20480;-78
2023/09/07 00:25:17;;;;;;;5.07;3.40;;;18.70;99.90;;;;;;4984001;28;20045;-78
2023/09/07 00:27:42;;;;;;;5.30;3.45;;;18.70;99.90;;;;;;4989184;28;20693;-77
2023/09/07 00:30:09;;;;;;;5.15;3.63;;;18.70;99.90;;;;;;5005867;28;20056;-78
2023/09/07 00:32:37;;;;;;;5.38;3.55;;;18.70;99.90;;;;;;5005470;28;20044;-78
2023/09/07 00:35:03;;;;;;;5.10;3.90;;;18.70;99.90;;;;;;5004609;28;20096;-78
2023/09/07 00:37:29;;;;;;;4.60;3.75;;;18.70;99.90;;;;;;5003661;28;20050;-78
2023/09/07 00:39:54;;;;;;;5.35;4.18;;;18.70;99.90;;;;;;5005029;28;20046;-78
2023/09/07 00:42:20;;;;;;;5.03;3.33;;;18.70;99.90;;;;;;5003683;28;20477;-77
2023/09/07 00:44:46;;;;;;;7.13;3.85;;;18.70;99.90;;;;;;5005134;28;20050;-77
2023/09/07 00:47:12;;;;;;;4.85;4.10;;;18.60;99.90;;;;;;4999377;28;20050;-77
2023/09/07 00:49:38;;;;;;;4.25;3.50;;;18.60;99.90;;;;;;4984666;28;20066;-77
2023/09/07 00:52:05;;;;;;;5.03;3.60;;;18.60;99.90;;;;;;4984674;28;20066;-78
2023/09/07 00:54:31;;;;;;;3.90;3.28;;;18.50;99.90;;;;;;4998822;28;20037;-77
2023/09/07 00:56:57;;;;;;;4.82;4.10;;;18.50;99.90;;;;;;5005168;28;20396;-77
2023/09/07 00:59:23;;;;;;;4.53;3.58;;;18.50;99.90;;;;;;5004402;28;20076;-77
2023/09/07 01:01:49;;;;;;;6.32;3.85;;;18.50;99.90;;;;;;5088496;23;20518;-76
2023/09/07 01:04:15;;;;;;;5.03;4.32;;;18.40;99.90;;;;;;5039248;28;20139;-77
2023/09/07 01:06:46;;;;;;;6.60;3.95;;;18.40;99.90;;;;;;5041092;28;20036;-78
2023/09/07 01:09:18;;;;;;;9.10;3.92;;;18.40;99.90;;;;;;5044335;28;20120;-77
2023/09/07 01:11:44;;;;;;;;;;;18.40;99.90;;;;;;5044760;28;20132;-77
2023/09/07 01:14:10;;;;;;;4.00;3.60;;;18.40;99.90;;;;;;5044077;28;20007;-77
2023/09/07 01:16:38;;;;;;;4.93;3.70;;;18.40;99.90;;;;;;5044303;28;20045;-77
2023/09/07 01:19:06;;;;;;;8.13;4.28;;;18.40;99.90;;;;;;5043985;28;20494;-77
2023/09/07 01:21:35;;;;;;;5.95;3.67;;;18.40;99.90;;;;;;5043109;28;20045;-76
2023/09/07 01:24:03;;;;;;;5.78;3.88;;;18.30;99.90;;;;;;5032788;28;20486;-78
2023/09/07 01:26:28;;;;;;;6.97;4.75;;;18.30;99.90;;;;;;5026099;28;20875;-78
2023/09/07 01:28:54;;;;;;;5.72;4.10;;;18.30;99.90;;;;;;5044066;28;20064;-77
2023/09/07 01:31:20;;;;;;;5.40;4.00;;;18.30;99.90;;;;;;5026019;28;20084;-77
2023/09/07 01:33:45;;;;;;;5.15;3.85;;;18.30;99.90;;;;;;5025789;28;20052;-77
2023/09/07 01:36:11;;;;;;;5.70;4.07;;;18.20;99.90;;;;;;5042394;28;20400;-76
2023/09/07 01:38:37;;;;;;;4.95;4.15;;;18.20;99.90;;;;;;5043909;28;20819;-77
2023/09/07 01:41:02;;;;;;;7.53;4.35;;;18.20;99.90;;;;;;5043553;28;20041;-77
2023/09/07 01:43:28;;;;;;;6.82;4.63;;;18.20;99.90;;;;;;5043551;28;20855;-77
2023/09/07 01:45:53;;;;;;;6.13;3.67;;;18.20;99.90;;;;;;5009543;28;20049;-77
2023/09/07 01:48:19;;;;;;;6.82;4.45;;;18.20;99.90;;;;;;5043224;28;20464;-77
2023/09/07 01:50:44;;;;;;;5.22;4.18;;;18.10;99.90;;;;;;5042813;28;20083;-76
2023/09/07 01:53:10;;;;;;;5.75;4.35;;;18.10;99.90;;;;;;5043492;28;20350;-77
2023/09/07 01:55:36;;;;;;;6.78;4.15;;;18.20;99.90;;;;;;5026349;28;20384;-77
2023/09/07 01:58:01;;;;;;;4.93;4.40;;;18.10;99.90;;;;;;5043622;28;20079;-77
2023/09/07 02:00:27;;;;;;;6.80;4.32;;;18.20;99.90;;;;;;5043341;28;20049;-76
2023/09/07 02:02:53;;;;;;;8.40;4.38;;;18.10;99.90;;;;;;5047326;28;20427;-77
2023/09/07 02:05:18;;;;;;;4.75;4.03;;;18.10;99.90;;;;;;5029232;28;20494;-77
2023/09/07 02:07:44;;;;;;;7.10;4.32;;;18.10;99.90;;;;;;5046282;28;20037;-77
2023/09/07 02:10:10;;;;;;;5.15;3.97;;;18.10;99.90;;;;;;5047184;28;20475;-77
2023/09/07 02:12:35;;;;;;;5.90;4.72;;;18.10;99.90;;;;;;5029633;28;20505;-77
2023/09/07 02:15:05;;;;;;;6.28;4.30;;;18.10;99.90;;;;;;5047166;28;20510;-77
2023/09/07 02:17:32;;;;;;;7.60;4.45;;;18.10;99.90;;;;;;5046733;28;20048;-77
2023/09/07 02:19:57;;;;;;;5.45;4.15;;;18.10;99.90;;;;;;5047174;28;20029;-76
2023/09/07 02:22:23;;;;;;;5.25;4.10;;;18.10;99.90;;;;;;5046317;28;20172;-77
2023/09/07 02:24:49;;;;;;;5.90;3.72;;;18.10;99.90;;;;;;5046750;28;20368;-78
2023/09/07 02:27:14;;;;;;;6.65;4.32;;;18.00;99.90;;;;;;5029220;28;20139;-77
2023/09/07 02:29:40;;;;;;;7.63;5.97;;;18.00;99.90;;;;;;5047261;28;20041;-77
2023/09/07 02:32:06;;;;;;;8.25;4.55;;;18.00;99.90;;;;;;5047812;28;20496;-77
2023/09/07 02:34:31;;;;;;;6.50;4.13;;;18.00;99.90;;;;;;5011401;28;20048;-76
2023/09/07 02:36:57;;;;;;;5.55;4.22;;;18.00;99.90;;;;;;5028377;28;20045;-77
2023/09/07 02:39:26;;;;;;;9.25;5.13;;;18.00;99.90;;;;;;5046564;28;20040;-77
2023/09/07 02:41:52;;;;;;;7.10;4.57;;;18.00;99.90;;;;;;5046769;28;20135;-77
2023/09/07 02:44:18;;;;;;;8.07;4.28;;;18.00;99.90;;;;;;5046398;28;20083;-77
2023/09/07 02:46:43;;;;;;;6.65;3.92;;;18.00;99.90;;;;;;5028554;28;20130;-76
2023/09/07 02:49:09;;;;;;;5.07;4.35;;;18.00;99.90;;;;;;5046455;28;20779;-77
2023/09/07 02:51:35;;;;;;;6.38;4.90;;;17.90;99.90;;;;;;5045522;28;20450;-76
2023/09/07 02:54:02;;;;;;;4.95;3.65;;;18.00;99.90;;;;;;5047043;28;20033;-77
2023/09/07 02:56:28;;;;;;;5.53;4.55;;;17.90;99.90;;;;;;5046685;28;20044;-77
2023/09/07 02:58:54;;;;;;;5.32;3.80;;;17.90;99.90;;;;;;5028319;28;20091;-77
2023/09/07 03:01:20;;;;;;;5.68;4.43;;;17.90;99.90;;;;;;5046245;28;20045;-76
2023/09/07 03:03:46;;;;;;;7.05;3.83;;;17.90;99.90;;;;;;5046227;28;20053;-77
2023/09/07 03:06:14;;;;;;;6.80;4.68;;;17.90;99.90;;;;;;5045140;28;20123;-77
2023/09/07 03:08:40;;;;;;;5.82;4.53;;;17.80;99.90;;;;;;5045986;28;20040;-78
2023/09/07 03:11:07;;;;;;;7.45;4.18;;;17.80;99.90;;;;;;5028585;28;20056;-76
2023/09/07 03:13:33;;;;;;;5.20;4.22;;;17.80;99.90;;;;;;5045272;28;20041;-77
2023/09/07 03:15:59;;;;;;;4.75;3.97;;;17.80;99.90;;;;;;5046142;28;20056;-77
2023/09/07 03:18:25;;;;;;;5.50;3.92;;;17.70;99.90;;;;;;5028369;28;20353;-77
2023/09/07 03:20:53;;;;;;;5.97;4.70;;;17.70;99.90;;;;;;5027521;28;20063;-77
2023/09/07 03:23:19;;;;;;;5.07;3.90;;;17.70;99.90;;;;;;5046244;28;20047;-77
2023/09/07 03:25:44;;;;;;;5.78;3.58;;;17.70;99.90;;;;;;5045882;28;20119;-77
2023/09/07 03:28:10;;;;;;;6.90;3.95;;;17.70;99.90;;;;;;5027710;28;20049;-77
2023/09/07 03:30:36;;;;;;;7.10;4.32;;;17.60;99.90;;;;;;5046568;28;20037;-77
2023/09/07 03:33:03;;;;;;;7.93;4.65;;;17.60;99.90;;;;;;5027959;28;20047;-78
2023/09/07 03:35:28;;;;;;;8.40;4.93;;;17.60;99.90;;;;;;5026635;28;20565;-76
2023/09/07 03:37:54;;;;;;;6.55;3.92;;;17.60;99.90;;;;;;5045737;28;20044;-77
2023/09/07 03:40:20;;;;;;;5.13;3.80;;;17.60;99.90;;;;;;5045796;28;20044;-78
2023/09/07 03:42:46;;;;;;;10.35;4.50;;;17.60;99.90;;;;;;5028055;28;20399;-77
2023/09/07 03:45:12;;;;;;;5.45;3.92;;;17.60;99.90;;;;;;5044895;28;20108;-77
2023/09/07 03:47:38;;;;;;;5.15;4.65;;;17.50;99.90;;;;;;5046164;28;20585;-76
2023/09/07 03:50:04;;;;;;;9.15;5.18;;;17.50;99.90;;;;;;5045919;28;20044;-77
2023/09/07 03:52:30;;;;;;;4.80;4.00;;;17.50;99.90;;;;;;5025955;28;20080;-77
2023/09/07 03:54:56;;;;;;;7.93;4.35;;;17.50;99.90;;;;;;5045600;28;20072;-77
2023/09/07 03:57:23;;;;;;;8.55;5.13;;;17.50;99.90;;;;;;5045366;28;20094;-76
2023/09/07 03:59:49;;;;;;;5.47;4.80;;;17.50;99.90;;;;;;5045335;28;20133;-77
2023/09/07 04:02:15;;;;;;;7.07;4.93;;;17.40;99.90;;;;;;5026852;28;20364;-76
2023/09/07 04:04:41;;;;;;;6.38;3.90;;;17.50;99.90;;;;;;5045161;28;20573;-77
2023/09/07 04:07:06;;;;;;;5.72;4.10;;;17.40;99.90;;;;;;5026826;28;20081;-76
2023/09/07 04:09:32;;;;;;;7.28;4.18;;;17.40;99.90;;;;;;5044971;28;20075;-77
2023/09/07 04:11:58;;;;;;;6.00;3.95;;;17.40;99.90;;;;;;5026776;28;20111;-77
2023/09/07 04:14:23;;;;;;;4.80;4.28;;;17.40;99.90;;;;;;5044952;28;20036;-77
2023/09/07 04:16:51;;;;;;;6.05;4.10;;;17.40;99.90;;;;;;5044711;28;20132;-77
2023/09/07 04:19:16;;;;;;;6.13;4.75;;;17.40;99.90;;;;;;5044246;28;20132;-77
2023/09/07 04:21:42;;;;;;;8.23;5.22;;;17.40;99.90;;;;;;5043888;28;20132;-77
2023/09/07 04:24:08;;;;;;;5.80;4.28;;;17.40;99.90;;;;;;5045007;28;20122;-77
2023/09/07 04:26:34;;;;;;;6.85;4.13;;;17.40;99.90;;;;;;5045144;28;20045;-77
2023/09/07 04:28:59;;;;;;;8.65;4.30;;;17.40;99.90;;;;;;5044922;28;20065;-77
2023/09/07 04:31:27;;;;;;;5.47;4.05;;;17.30;99.90;;;;;;5026058;28;20087;-77
2023/09/07 04:33:53;;;;;;;8.70;5.10;;;17.30;99.90;;;;;;5044879;28;20040;-77
2023/09/07 04:36:19;;;;;;;6.22;4.43;;;17.30;99.90;;;;;;5043009;28;20612;-76
2023/09/07 04:38:45;;;;;;;7.03;4.05;;;17.30;99.90;;;;;;5044810;28;20049;-77
2023/09/07 04:41:12;;;;;;;5.88;4.38;;;17.30;99.90;;;;;;5027076;28;20052;-78
2023/09/07 04:43:45;;;;;;;6.07;4.13;;;17.30;99.90;;;;;;5028361;28;20037;-77
2023/09/07 04:46:12;;;;;;;5.82;4.18;;;17.20;99.90;;;;;;5044228;28;20029;-77
2023/09/07 04:48:40;;;;;;;6.30;4.25;;;17.30;99.90;;;;;;5044113;28;20057;-77
2023/09/07 04:51:07;;;;;;;7.03;4.68;;;17.30;99.90;;;;;;5018362;28;20091;-76
2023/09/07 04:53:34;;;;;;;9.43;4.82;;;17.20;99.90;;;;;;5025266;28;20037;-76
2023/09/07 04:56:04;;;;;;;5.70;4.22;;;17.20;99.90;;;;;;5044520;28;20387;-78
2023/09/07 04:58:29;;;;;;;4.97;4.10;;;17.20;99.90;;;;;;5043919;28;20056;-77
2023/09/07 05:01:02;;;;;;;8.27;4.72;;;17.20;99.90;;;;;;5043946;28;20044;-78
2023/09/07 05:03:27;;;;;;;5.97;4.25;;;17.20;99.90;;;;;;5042193;28;20033;-77
2023/09/07 05:05:53;;;;;;;7.50;4.53;;;17.20;99.90;;;;;;5043117;28;20041;-77
2023/09/07 05:08:19;;;;;;;6.95;4.50;;;17.10;99.90;;;;;;5043979;28;20102;-78
2023/09/07 05:10:45;;;;;;;6.18;4.53;;;17.10;99.90;;;;;;5044015;28;20103;-77
2023/09/07 05:13:10;;;;;;;6.68;5.28;;;17.10;99.90;;;;;;5025984;28;20466;-77
2023/09/07 05:15:36;;;;;;;8.85;5.18;;;17.10;99.90;;;;;;5026694;28;20106;-77
2023/09/07 05:18:02;;;;;;;6.13;4.53;;;17.10;99.90;;;;;;5043875;28;20123;-76
2023/09/07 05:20:30;;;;;;;6.40;4.75;;;17.10;99.90;;;;;;5003836;28;20372;-81
2023/09/07 05:22:56;;;;;;;6.75;4.15;;;17.10;99.90;;;;;;5040608;28;20056;-77
2023/09/07 05:25:22;;;;;;;8.55;4.50;;;17.10;99.90;;;;;;5022989;28;20091;-79
2023/09/07 05:27:48;;;;;;;5.97;4.53;;;17.10;99.90;;;;;;5042054;28;20450;-78
2023/09/07 05:30:14;;;;;;;10.02;4.53;;;17.10;99.90;;;;;;5027912;28;20029;-78
2023/09/07 05:32:41;;;;;;;7.47;4.10;;;17.10;99.90;;;;;;5027038;28;20044;-77
2023/09/07 05:35:07;;;;;;;6.85;4.72;;;17.10;99.90;;;;;;5042432;28;20072;-78
2023/09/07 05:37:33;;;;;;;7.47;5.35;;;17.10;99.90;;;;;;5030240;28;20052;-78
2023/09/07 05:39:58;;;;;;;4.80;4.05;;;17.10;99.90;;;;;;5049628;28;20692;-78
2023/09/07 05:42:25;;;;;;;7.13;5.05;;;17.10;99.90;;;;;;5048355;28;20025;-79
2023/09/07 05:44:51;;;;;;;5.95;4.60;;;17.10;99.90;;;;;;5048801;28;20099;-79
2023/09/07 05:47:17;;;;;;;6.47;4.47;;;17.10;99.90;;;;;;5040029;28;20716;-78
2023/09/07 05:49:43;;;;;;;6.85;5.00;;;17.20;99.90;;;;;;5048493;28;20151;-77
2023/09/07 05:52:08;;;;;;;9.27;4.90;;;17.20;99.90;;;;;;5048669;28;20065;-77
2023/09/07 05:54:34;;;;;;;6.70;5.05;;;17.20;99.90;;;;;;5032350;28;20104;-77
2023/09/07 05:57:00;;;;;;;6.38;4.80;;;17.20;99.90;;;;;;5043114;28;20068;-78
2023/09/07 05:59:25;;;;;;;9.60;4.35;;;17.20;99.90;;;;;;5049194;28;20048;-77
2023/09/07 06:01:51;;;;;;;9.40;5.03;;;17.20;99.90;;;;;;5049875;28;20053;-79
2023/09/07 06:04:16;;;;;;;9.13;5.47;;;17.20;99.90;;;;;;5045700;28;20179;-78
2023/09/07 06:06:42;;;;;;;6.93;4.72;;;17.30;99.90;;;;;;5048046;28;20442;-79
2023/09/07 06:09:08;;;;;;;6.07;4.40;;;17.30;99.90;;;;;;5050682;28;20043;-80
2023/09/07 06:11:34;;;;;;;6.65;4.60;;;17.30;99.90;;;;;;5049974;28;20049;-78
2023/09/07 06:14:00;;;;;;;5.63;4.60;;;17.40;99.90;;;;;;5050392;28;20045;-77
2023/09/07 06:16:25;;;;;;;6.25;4.80;;;17.40;99.90;;;;;;5049370;28;20044;-78
2023/09/07 06:18:51;;;;;;;6.90;4.93;;;17.40;99.90;;;;;;5049201;28;20094;-78
2023/09/07 06:21:17;;;;;;;6.30;4.25;;;17.40;99.90;;;;;;5030307;28;20052;-78
2023/09/07 06:23:43;;;;;;;7.05;4.75;;;17.50;99.90;;;;;;5031797;28;20488;-78
2023/09/07 06:26:09;;;;;;;7.80;5.07;;;17.50;99.90;;;;;;5049675;28;20055;-78
2023/09/07 06:28:34;;;;;;;6.45;5.22;;;17.50;99.90;;;;;;5032467;28;20033;-77
2023/09/07 06:31:00;;;;;;;7.18;4.90;;;17.60;99.90;;;;;;5049492;28;20534;-78
2023/09/07 06:33:25;;;;;;;6.47;4.80;;;17.60;99.90;;;;;;5049284;28;20037;-78
2023/09/07 06:35:51;;;;;;;6.50;4.25;;;17.60;99.90;;;;;;5049016;28;20098;-77
2023/09/07 06:38:16;;;;;;;7.72;5.13;;;17.60;99.90;;;;;;5049239;28;20037;-78
2023/09/07 06:40:48;;;;;;;6.07;4.78;;;17.70;99.90;;;;;;5048745;28;20445;-78
2023/09/07 06:43:14;;;;;;;7.88;4.65;;;17.70;99.90;;;;;;5030889;28;20084;-81
2023/09/07 06:45:39;;;;;;;5.78;4.50;;;17.80;99.90;;;;;;5049741;28;20519;-82
2023/09/07 06:48:05;;;;;;;6.53;4.82;;;17.80;99.90;;;;;;5047656;28;20106;-83
2023/09/07 06:50:31;;;;;;;7.32;4.35;;;17.80;99.90;;;;;;5046080;28;20033;-79
2023/09/07 06:52:56;;;;;;;6.45;4.70;;;17.80;99.90;;;;;;5012621;28;20033;-85
2023/09/07 06:55:22;;;;;;;14.93;5.70;;;17.90;99.90;;;;;;5046792;28;20049;-80
2023/09/07 06:57:49;;;;;;;7.43;5.22;;;17.90;99.90;;;;;;5029235;28;20037;-82
2023/09/07 07:00:15;;;;;;;8.38;4.90;;;18.00;99.90;;;;;;5023656;28;20055;-87
2023/09/07 07:02:40;;;;;;;8.35;6.05;;;18.00;99.90;;;;;;5016942;28;20053;-82
2023/09/07 07:05:07;;;;;;;5.93;4.82;;;18.00;99.90;;;;;;5040134;28;20080;-84
2023/09/07 07:07:32;;;;;;;7.45;5.00;;;18.00;99.90;;;;;;5042706;28;20049;-86
2023/09/07 07:09:58;;;;;;;5.97;4.65;;;18.10;99.90;;;;;;5037754;28;20300;-81
2023/09/07 07:12:23;;;;;;;8.35;5.15;;;18.10;99.90;;;;;;5026851;28;20045;-82
2023/09/07 07:14:49;;;;;;;8.48;5.45;;;18.20;99.90;;;;;;5028774;28;20040;-86
2023/09/07 07:17:15;;;;;;;8.45;4.97;;;18.20;99.90;;;;;;5027830;28;20045;-85
2023/09/07 07:19:41;;;;;;;6.63;4.45;;;18.30;99.90;;;;;;5045349;28;20099;-82
2023/09/07 07:22:07;;;;;;;6.15;4.35;;;18.40;99.90;;;;;;5046941;28;20123;-83
2023/09/07 07:24:33;;;;;;;7.38;4.55;;;18.40;99.90;;;;;;5046093;28;20139;-84
2023/09/07 07:26:58;;;;;;;6.00;4.85;;;18.40;99.90;;;;;;5046101;28;20463;-78
2023/09/07 07:29:24;;;;;;;10.93;4.68;;;18.50;99.90;;;;;;5027241;28;20095;-79
2023/09/07 07:31:50;;;;;;;7.13;5.00;;;18.50;99.90;;;;;;5044721;28;20088;-79
2023/09/07 07:34:15;;;;;;;6.75;4.88;;;18.60;99.90;;;;;;5010109;28;20066;-79
2023/09/07 07:36:41;;;;;;;9.30;5.90;;;18.60;99.90;;;;;;5044504;28;20037;-79
2023/09/07 07:39:07;;;;;;;8.85;4.50;;;18.70;99.90;;;;;;5045579;28;20056;-78
2023/09/07 07:41:33;;;;;;;6.38;4.85;;;18.80;99.90;;;;;;5044500;28;20032;-78
2023/09/07 07:43:58;;;;;;;7.63;4.68;;;18.80;99.90;;;;;;5032873;28;20044;-81
2023/09/07 07:46:24;;;;;;;11.15;4.75;;;18.90;99.90;;;;;;5029855;28;20064;-78
2023/09/07 07:48:50;;;;;;;6.70;5.22;;;18.90;99.90;;;;;;5028122;28;20044;-79
2023/09/07 07:51:15;;;;;;;7.78;4.40;;;18.90;99.90;;;;;;5044019;28;20115;-79
2023/09/07 07:53:41;;;;;;;6.47;4.88;;;19.00;99.90;;;;;;5045107;28;20049;-79
2023/09/07 07:56:17;;;;;;;7.93;4.80;;;19.00;99.90;;;;;;5045154;28;20132;-78
2023/09/07 07:58:44;;;;;;;5.85;4.20;;;19.00;99.90;;;;;;5046504;28;20082;-79
2023/09/07 08:01:19;;;;;;;6.13;4.68;;;19.10;99.90;;;;;;5028973;28;20041;-78
2023/09/07 08:03:44;;;;;;;8.63;4.75;;;19.10;99.90;;;;;;5027960;28;20094;-78
2023/09/07 08:06:11;;;;;;;6.90;5.22;;;19.10;99.90;;;;;;5025522;28;20037;-78
2023/09/07 08:08:37;;;;;;;6.80;4.88;;;19.20;99.90;;;;;;5044670;28;20090;-78
2023/09/07 08:11:05;;;;;;;6.75;4.85;;;19.30;99.90;;;;;;5030493;28;20119;-78
2023/09/07 08:13:33;;;;;;;6.60;4.45;;;19.30;99.90;;;;;;5054383;28;20511;-77
2023/09/07 08:16:02;;;;;;;9.30;4.57;;;19.40;99.90;;;;;;5043739;28;20628;-79
2023/09/07 08:18:28;;;;;;;9.95;5.00;;;19.40;99.90;;;;;;5044397;28;20037;-78
2023/09/07 08:20:55;;;;;;;8.02;4.82;;;19.50;99.90;;;;;;5047567;28;20036;-77
2023/09/07 08:23:23;;;;;;;6.60;4.55;;;19.50;99.90;;;;;;5028850;28;20083;-78
2023/09/07 08:25:48;;;;;;;4.68;3.80;;;19.50;99.90;;;;;;5045311;28;20037;-78
2023/09/07 08:28:15;;;;;;;4.50;3.90;;;19.60;99.90;;;;;;5028875;28;20056;-76
2023/09/07 08:30:41;;;;;;;7.00;4.05;;;19.70;99.90;;;;;;5046538;28;20410;-76
2023/09/07 08:33:08;;;;;;;4.88;3.72;;;19.70;99.90;;;;;;5027226;28;20048;-77
2023/09/07 08:35:35;;;;;;;5.95;3.35;;;19.70;99.90;;;;;;5023439;28;20042;-77
2023/09/07 08:38:04;;;;;;;5.65;4.40;;;19.80;99.90;;;;;;5034528;28;20133;-77
2023/09/07 08:40:32;;;;;;;4.60;3.78;;;19.90;99.90;;;;;;5047652;28;20048;-77
2023/09/07 08:43:03;;;;;;;4.82;3.47;;;19.90;99.90;;;;;;5026648;28;20041;-77
2023/09/07 08:45:31;;;;;;;5.50;3.33;;;20.00;99.90;;;;;;5043191;28;20433;-77
2023/09/07 08:47:59;;;;;;;3.63;3.03;;;20.00;99.90;;;;;;5043832;28;20037;-77
2023/09/07 08:50:24;;;;;;;8.02;3.90;;;20.10;99.90;;;;;;5044655;28;20052;-76
2023/09/07 08:52:52;;;;;;;5.95;3.25;;;20.10;99.90;;;;;;5044081;28;20037;-76
2023/09/07 08:55:19;;;;;;;4.10;2.97;;;20.20;99.90;;;;;;5028261;28;20036;-76
2023/09/07 08:57:45;;;;;;;4.97;3.45;;;20.20;99.90;;;;;;5030307;28;20044;-76
2023/09/07 09:00:16;;;;;;;6.13;4.15;;;20.30;99.90;;;;;;5025387;28;20591;-76
2023/09/07 09:02:42;;;;;;;4.47;3.67;;;20.30;99.90;;;;;;5027877;28;20036;-77
2023/09/07 09:05:10;;;;;;;6.40;4.10;;;20.30;99.90;;;;;;5045750;28;20423;-76
2023/09/07 09:07:37;;;;;;;6.22;3.70;;;20.40;99.90;;;;;;5023717;28;20518;-76
2023/09/07 09:10:09;;;;;;;4.72;3.10;;;20.50;99.90;;;;;;5042362;28;20044;-76
2023/09/07 09:12:34;;;;;;;4.40;3.08;;;20.60;99.90;;;;;;5041093;28;20517;-77
2023/09/07 09:15:03;;;;;;;5.30;3.40;;;20.60;99.90;;;;;;5029891;28;20032;-76
2023/09/07 09:17:29;;;;;;;6.38;4.18;;;20.70;99.90;;;;;;5042711;28;20399;-76
2023/09/07 09:19:55;;;;;;;4.22;3.55;;;20.80;99.90;;;;;;4994810;28;20056;-76
2023/09/07 09:22:21;;;;;;;5.90;3.92;;;20.80;99.90;;;;;;5006374;28;20041;-76
2023/09/07 09:24:48;;;;;;;4.25;3.38;;;20.90;99.90;;;;;;5025324;28;20074;-76
2023/09/07 09:27:14;;;;;;;5.75;3.60;;;20.90;99.90;;;;;;5032607;28;20057;-79
2023/09/07 09:29:39;;;;;;;4.40;3.70;;;21.00;99.90;;;;;;5023756;28;20044;-77
2023/09/07 09:32:07;;;;;;;5.63;3.42;;;21.00;99.90;;;;;;5024380;28;20055;-77
2023/09/07 09:34:36;;;;;;;3.85;3.13;;;21.10;99.90;;;;;;5041876;28;20102;-77
2023/09/07 09:37:03;;;;;;;6.13;4.00;;;21.10;99.90;;;;;;5041691;28;20048;-77
2023/09/07 09:39:29;;;;;;;7.25;3.83;;;21.20;99.90;;;;;;5042599;28;20040;-78
2023/09/07 09:41:56;;;;;;;5.05;3.55;;;21.20;99.90;;;;;;5045287;28;20045;-78
2023/09/07 09:44:26;;;;;;;5.78;4.00;;;21.30;99.90;;;;;;5027208;28;20037;-78
2023/09/07 09:46:56;;;;;;;4.07;3.67;;;21.30;99.90;;;;;;5041741;28;20045;-78
2023/09/07 09:49:22;;;;;;;5.22;4.18;;;21.30;99.90;;;;;;5026251;28;20033;-73
2023/09/07 09:51:50;;;;;;;6.85;3.78;;;21.30;99.90;;;;;;5021833;28;20056;-73
2023/09/07 09:54:20;;;;;;;5.55;4.30;;;21.30;99.90;;;;;;5023404;28;20542;-73
2023/09/07 09:56:46;;;;;;;5.15;3.13;;;21.40;99.90;;;;;;5026402;28;20060;-72
2023/09/07 09:59:15;;;;;;;3.80;3.15;;;21.40;99.90;;;;;;5011719;28;20399;-72
2023/09/07 10:01:45;;;;;;;5.32;3.33;;;21.40;99.90;;;;;;5042048;28;20045;-74
2023/09/07 10:04:15;;;;;;;4.63;3.78;;;21.50;99.90;;;;;;5040609;28;20132;-75
2023/09/07 10:06:54;;;;;;;4.07;3.08;;;21.50;99.90;;;;;;5045852;28;20040;-74
2023/09/07 10:09:20;;;;;;;5.15;3.17;;;21.60;99.90;;;;;;5041567;28;20057;-73
2023/09/07 10:11:53;;;;;;;4.65;3.22;;;21.70;99.90;;;;;;5023584;28;20045;-73
2023/09/07 10:14:18;;;;;;;8.30;3.40;;;21.70;99.90;;;;;;5031937;28;20069;-74
2023/09/07 10:16:48;;;;;;;6.18;3.28;;;21.70;99.90;;;;;;5026216;28;20473;-73
2023/09/07 10:19:24;;;;;;;5.75;3.42;;;21.80;99.90;;;;;;5041345;28;20060;-74
2023/09/07 10:21:52;;;;;;;3.35;3.05;;;21.80;99.90;;;;;;5044156;28;20048;-74
2023/09/07 10:24:36;;;;;;;4.50;3.30;;;21.90;99.90;;;;;;5025592;28;20040;-74
2023/09/07 10:27:06;;;;;;;5.60;3.72;;;21.90;99.90;;;;;;5025873;28;20126;-73
2023/09/07 10:29:46;;;;;;;6.03;2.97;;;22.00;99.90;;;;;;5010709;28;20136;-73
2023/09/07 10:32:16;;;;;;;4.78;3.85;;;22.00;99.90;;;;;;5044622;28;20076;-73
2023/09/07 10:34:43;;;;;;;4.32;3.17;;;22.00;99.90;;;;;;4992111;28;20438;-73
2023/09/07 10:37:13;;;;;;;3.35;3.03;;;22.10;99.90;;;;;;5040955;28;20116;-74
2023/09/07 10:39:42;;;;;;;4.63;3.63;;;22.10;99.90;;;;;;5043037;28;20056;-74
2023/09/07 10:42:08;;;;;;;5.47;3.70;;;22.20;99.90;;;;;;5042479;28;20072;-74
2023/09/07 10:44:34;;;;;;;6.82;3.38;;;22.20;99.90;;;;;;5046174;28;20472;-74
2023/09/07 10:47:00;;;;;;;4.63;3.40;;;22.20;99.90;;;;;;5027581;28;20068;-74
2023/09/07 10:49:26;;;;;;;3.63;3.00;;;22.30;99.90;;;;;;5043365;28;20079;-73
2023/09/07 10:51:51;;;;;;;3.67;2.95;;;22.40;99.90;;;;;;5045373;28;20119;-74
2023/09/07 10:54:22;;;;;;;5.75;2.53;;;22.50;99.90;;;;;;5046047;28;20076;-75
2023/09/07 10:56:49;;;;;;;4.05;3.60;;;22.60;99.90;;;;;;5028576;28;20049;-73
2023/09/07 10:59:16;;;;;;;7.47;3.55;;;22.60;99.90;;;;;;5045145;28;20037;-72
2023/09/07 11:01:45;;;;;;;4.90;3.38;;;22.70;99.90;;;;;;5027967;28;20057;-73
2023/09/07 11:04:11;;;;;;;5.22;3.08;;;22.70;99.90;;;;;;5024963;28;20045;-75
2023/09/07 11:06:38;;;;;;;3.80;3.15;;;22.70;99.90;;;;;;5028094;28;20376;-72
2023/09/07 11:09:04;;;;;;;3.08;2.78;;;22.80;99.90;;;;;;5027521;28;20117;-72
2023/09/07 11:11:33;;;;;;;3.50;3.05;;;22.80;99.90;;;;;;5030135;28;20116;-74
2023/09/07 11:13:59;;;;;;;3.85;3.47;;;22.90;99.90;;;;;;5033210;28;20140;-74
2023/09/07 11:16:27;;;;;;;3.83;3.20;;;22.90;99.90;;;;;;5027183;28;20033;-75
2023/09/07 11:18:54;;;;;;;4.25;3.10;;;22.90;99.90;;;;;;5011396;28;20045;-76
2023/09/07 11:21:20;;;;;;;3.67;3.25;;;23.00;99.90;;;;;;5045146;28;20083;-74
2023/09/07 11:23:46;;;;;;;5.57;3.10;;;23.00;99.90;;;;;;5027259;28;20052;-78
2023/09/07 11:26:12;;;;;;;3.95;2.58;;;23.10;99.90;;;;;;5045617;28;20036;-74
2023/09/07 11:28:38;;;;;;;3.72;3.05;;;23.20;99.90;;;;;;5027958;28;20390;-73
2023/09/07 11:31:04;;;;;;;3.30;2.78;;;23.30;99.90;;;;;;5009517;28;20037;-73
2023/09/07 11:33:33;;;;;;;5.72;3.67;;;23.30;99.90;;;;;;5042715;28;20500;-73
2023/09/07 11:35:58;;;;;;;3.45;2.50;;;23.30;99.90;;;;;;5026159;28;20107;-72
2023/09/07 11:38:35;;;;;;;2.92;2.60;;;23.40;99.90;;;;;;5026683;28;20073;-74
2023/09/07 11:41:00;;;;;;;2.88;2.58;;;23.40;99.90;;;;;;5043886;28;20112;-73
2023/09/07 11:43:26;;;;;;;4.20;2.78;;;23.50;99.90;;;;;;5046339;28;20495;-73
2023/09/07 11:45:52;;;;;;;4.18;3.00;;;23.60;99.90;;;;;;5044042;28;20139;-74
2023/09/07 11:48:17;;;;;;;6.70;3.17;;;23.60;99.90;;;;;;5035969;28;20067;-73
2023/09/07 11:50:43;;;;;;;4.82;2.90;;;23.70;99.90;;;;;;5015622;28;20491;-74
2023/09/07 11:53:09;;;;;;;4.10;3.22;;;23.70;99.90;;;;;;5043834;28;20037;-75
2023/09/07 11:55:35;;;;;;;4.00;2.85;;;23.80;99.90;;;;;;5027365;28;20043;-73
2023/09/07 11:58:02;;;;;;;4.53;2.67;;;23.80;99.90;;;;;;5029594;28;20037;-73
2023/09/07 12:00:29;;;;;;;5.95;2.50;;;23.90;99.90;;;;;;5042517;28;20052;-72
2023/09/07 12:02:55;;;;;;;3.80;3.45;;;23.80;99.90;;;;;;5029406;28;20061;-72
2023/09/07 12:05:20;;;;;;;3.40;2.83;;;23.90;99.90;;;;;;5029041;28;20043;-73
2023/09/07 12:07:46;;;;;;;7.85;3.38;;;23.90;99.90;;;;;;5009584;28;20040;-75
2023/09/07 12:10:13;;;;;;;3.63;3.25;;;23.90;99.90;;;;;;5025407;28;20241;-74
2023/09/07 12:12:43;;;;;;;5.07;3.85;;;24.00;99.90;;;;;;5023313;28;20492;-75
2023/09/07 12:15:11;;;;;;;6.38;3.03;;;24.00;99.90;;;;;;5006802;28;20052;-75
2023/09/07 12:17:37;;;;;;;4.32;2.70;;;24.00;99.90;;;;;;5024222;28;20545;-73
2023/09/07 12:20:04;;;;;;;4.25;3.60;;;24.00;99.90;;;;;;5043703;28;20044;-73
2023/09/07 12:22:30;;;;;;;3.65;2.72;;;24.00;99.90;;;;;;5030411;28;20073;-73
2023/09/07 12:24:56;;;;;;;3.95;3.15;;;24.10;99.90;;;;;;5036331;28;20525;-74
2023/09/07 12:27:22;;;;;;;3.22;2.53;;;24.10;99.90;;;;;;5027228;28;20043;-73
2023/09/07 12:29:48;;;;;;;3.03;2.63;;;24.20;99.90;;;;;;5043270;28;20412;-74
2023/09/07 12:32:14;;;;;;;4.22;3.25;;;24.30;99.90;;;;;;5017875;28;20094;-74
2023/09/07 12:34:40;;;;;;;4.97;2.78;;;24.30;99.90;;;;;;5025334;28;20045;-72
2023/09/07 12:37:05;;;;;;;5.05;3.20;;;24.30;99.90;;;;;;5025325;28;20049;-73
2023/09/07 12:39:32;;;;;;;7.85;3.28;;;24.30;99.90;;;;;;5024943;28;20037;-76
2023/09/07 12:41:58;;;;;;;5.28;2.88;;;24.30;99.90;;;;;;5024322;28;20033;-73
2023/09/07 12:44:24;;;;;;;4.47;2.97;;;24.20;99.90;;;;;;5025447;28;20177;-73